Time;durP1;ratioP1;P1;durP2;ratioP2;P2;SDS_P1;SDS_P2;PMS_P1;PMS_P2;Temp;Humidity;BMP_temperature;BMP_pressure;BME280_temperature;BME280_humidity;BME280_pressure;Samples;Min_cycle;Max_cycle;Signal;HPM_P1;HPM_P2
2021/11/24 00:01:22;;;;;;;4.75;3.10;;;;;;;18.93;43.46;102729.50;5094755;28;20024;-65
2021/11/24 00:03:48;;;;;;;5.97;3.15;;;;;;;18.91;43.69;102729.59;5094648;28;20016;-64
2021/11/24 00:06:13;;;;;;;4.50;2.97;;;;;;;18.90;43.67;102719.97;5093877;28;20068;-65
2021/11/24 00:08:38;;;;;;;4.88;3.30;;;;;;;18.88;43.35;102716.53;5094280;28;20281;-65
2021/11/24 00:11:04;;;;;;;4.55;2.80;;;;;;;18.87;43.41;102720.16;5094326;28;20112;-65
2021/11/24 00:13:29;;;;;;;4.88;3.03;;;;;;;18.86;43.52;102721.06;5093133;28;20078;-64
2021/11/24 00:15:54;;;;;;;5.60;3.10;;;;;;;18.84;43.31;102721.16;5094505;28;20035;-65
2021/11/24 00:18:20;;;;;;;4.90;3.15;;;;;;;18.82;43.52;102719.53;5094339;28;20149;-65
2021/11/24 00:20:45;;;;;;;5.85;3.38;;;;;;;18.80;43.46;102714.31;5093318;28;20110;-65
2021/11/24 00:23:11;;;;;;;5.00;3.20;;;;;;;18.80;43.55;102709.03;5094234;28;20100;-65
2021/11/24 00:25:36;;;;;;;5.20;3.50;;;;;;;18.76;43.30;102706.66;5092900;28;20085;-65
2021/11/24 00:28:02;;;;;;;4.95;2.95;;;;;;;18.76;43.36;102717.22;5094108;28;20028;-65
2021/11/24 00:30:27;;;;;;;4.70;3.00;;;;;;;18.76;43.13;102714.56;5093759;28;20039;-65
2021/11/24 00:32:54;;;;;;;5.13;3.28;;;;;;;18.75;43.24;102711.06;5093565;28;20039;-65
2021/11/24 00:35:20;;;;;;;5.43;3.20;;;;;;;18.73;43.36;102720.03;5094016;28;20040;-65
2021/11/24 00:37:45;;;;;;;5.00;3.30;;;;;;;18.73;43.40;102718.22;5093559;28;20020;-65
2021/11/24 00:40:11;;;;;;;4.65;2.95;;;;;;;18.71;43.54;102722.75;5093225;28;20020;-65
2021/11/24 00:42:36;;;;;;;8.30;3.28;;;;;;;18.70;43.00;102704.34;5093535;28;20490;-65
2021/11/24 00:45:03;;;;;;;4.95;3.30;;;;;;;18.70;43.39;102706.97;5093841;28;20023;-65
2021/11/24 00:47:29;;;;;;;4.97;3.20;;;;;;;18.66;43.01;102704.50;5092909;28;20032;-65
2021/11/24 00:49:54;;;;;;;4.82;3.08;;;;;;;18.65;42.96;102708.06;5093572;28;20055;-66
2021/11/24 00:52:20;;;;;;;7.05;3.35;;;;;;;18.66;43.35;102711.59;5093647;28;20056;-65
2021/11/24 00:54:45;;;;;;;6.28;3.30;;;;;;;18.64;43.16;102709.03;5091799;28;20076;-65
2021/11/24 00:57:10;;;;;;;4.78;3.17;;;;;;;18.63;43.30;102711.75;5093413;28;20478;-66
2021/11/24 00:59:35;;;;;;;6.23;3.43;;;;;;;18.63;43.11;102709.09;5093337;28;20024;-65
2021/11/24 01:02:01;;;;;;;7.32;2.95;;;;;;;18.60;43.18;102701.34;5092808;28;20269;-64
2021/11/24 01:04:26;;;;;;;6.07;3.17;;;;;;;18.60;43.19;102691.63;5093355;28;20459;-65
2021/11/24 01:06:52;;;;;;;5.32;3.13;;;;;;;18.60;43.13;102698.69;5093350;28;20040;-65
2021/11/24 01:09:17;;;;;;;5.30;3.15;;;;;;;18.57;43.26;102694.44;5092487;28;20016;-66
2021/11/24 01:11:43;;;;;;;5.35;3.10;;;;;;;18.58;42.91;102695.28;5092937;28;20114;-65
2021/11/24 01:14:09;;;;;;;5.25;3.33;;;;;;;18.57;43.13;102697.06;5092908;28;20040;-66
2021/11/24 01:16:35;;;;;;;4.97;3.10;;;;;;;18.56;43.07;102699.78;5092504;28;20047;-65
2021/11/24 01:19:01;;;;;;;4.55;2.80;;;;;;;18.55;42.94;102690.16;5093314;28;20025;-65
2021/11/24 01:21:26;;;;;;;5.15;3.10;;;;;;;18.55;43.13;102690.16;5092944;28;20435;-66
2021/11/24 01:23:52;;;;;;;5.85;3.20;;;;;;;18.53;43.03;102692.03;5092218;28;20028;-66
2021/11/24 01:26:18;;;;;;;5.55;3.10;;;;;;;18.53;43.19;102687.59;5093031;28;20024;-65
2021/11/24 01:28:44;;;;;;;5.78;3.63;;;;;;;18.53;43.10;102686.75;5092917;28;20035;-65
2021/11/24 01:31:09;;;;;;;5.22;3.60;;;;;;;18.53;43.16;102694.69;5092512;28;20020;-65
2021/11/24 01:33:34;;;;;;;4.60;3.00;;;;;;;18.51;43.08;102689.47;5092734;28;20089;-66
2021/11/24 01:36:00;;;;;;;6.28;3.22;;;;;;;18.51;43.24;102691.28;5092255;28;20036;-65
2021/11/24 01:38:26;;;;;;;5.22;3.63;;;;;;;18.51;43.00;102681.56;5092606;28;20024;-65
2021/11/24 01:40:51;;;;;;;5.28;3.10;;;;;;;18.48;43.02;102677.31;5092965;28;20027;-65
2021/11/24 01:43:17;;;;;;;4.88;3.20;;;;;;;18.48;43.02;102677.31;5091975;28;20024;-65
2021/11/24 01:45:42;;;;;;;4.97;2.97;;;;;;;18.48;43.08;102673.78;5092346;28;20043;-66
2021/11/24 01:48:08;;;;;;;4.70;2.97;;;;;;;18.47;43.09;102669.47;5092860;28;20059;-65
2021/11/24 01:50:34;;;;;;;5.53;3.42;;;;;;;18.46;43.38;102667.75;5091716;28;20016;-65
2021/11/24 01:53:00;;;;;;;5.15;3.22;;;;;;;18.46;43.00;102663.31;5092432;28;20032;-66
2021/11/24 01:55:25;;;;;;;5.20;3.10;;;;;;;18.45;43.05;102666.91;5092341;28;20081;-65
2021/11/24 01:57:52;;;;;;;5.15;3.15;;;;;;;18.45;43.03;102666.03;5091883;28;20514;-65
2021/11/24 02:00:22;;;;;;;5.57;3.90;;;;;;;18.45;43.47;102660.75;5092925;28;20062;-66
2021/11/24 02:02:47;;;;;;;5.15;3.25;;;;;;;18.43;43.09;102663.47;5092417;28;20043;-65
2021/11/24 02:05:13;;;;;;;7.40;4.45;;;;;;;18.43;43.04;102660.00;5091801;28;20020;-65
2021/11/24 02:07:38;;;;;;;5.20;3.10;;;;;;;18.42;43.07;102653.88;5092247;28;20495;-65
2021/11/24 02:10:04;;;;;;;5.60;3.53;;;;;;;18.41;43.27;102654.81;5092410;28;20028;-66
2021/11/24 02:12:29;;;;;;;5.20;3.40;;;;;;;18.41;43.38;102649.53;5091339;28;20024;-64
2021/11/24 02:14:54;;;;;;;4.82;2.92;;;;;;;18.40;43.09;102650.44;5092288;28;20048;-65
2021/11/24 02:17:20;;;;;;;5.80;3.30;;;;;;;18.39;43.39;102647.88;5092513;28;20040;-66
2021/11/24 02:19:45;;;;;;;5.53;3.67;;;;;;;18.37;43.37;102647.13;5091524;28;20346;-65
2021/11/24 02:22:11;;;;;;;4.72;3.28;;;;;;;18.39;43.29;102651.41;5092445;28;20016;-65
2021/11/24 02:24:38;;;;;;;5.78;3.40;;;;;;;18.38;43.38;102648.84;5092082;28;20039;-64
2021/11/24 02:27:06;;;;;;;5.47;3.50;;;;;;;18.38;43.42;102648.84;5091472;28;20116;-65
2021/11/24 02:29:32;;;;;;;4.50;3.30;;;;;;;18.38;43.19;102643.56;5092126;28;20020;-65
2021/11/24 02:32:00;;;;;;;5.03;3.13;;;;;;;18.37;43.15;102637.41;5092278;28;20455;-66
2021/11/24 02:34:27;;;;;;;4.85;3.25;;;;;;;18.35;43.33;102636.66;5091256;28;20016;-65
2021/11/24 02:36:53;;;;;;;5.53;2.90;;;;;;;18.34;43.26;102637.59;5092185;28;20492;-65
2021/11/24 02:39:18;;;;;;;4.88;3.30;;;;;;;18.36;43.14;102640.13;5091276;28;20020;-65
2021/11/24 02:41:44;;;;;;;5.83;3.40;;;;;;;18.36;43.16;102626.94;5092258;28;20111;-65
2021/11/24 02:44:36;;;;;;;4.85;3.00;;;;;;;18.36;43.40;102627.81;5092175;28;20678;-65
2021/11/24 02:47:21;;;;;;;5.10;3.20;;;;;;;18.38;43.37;102625.09;5091283;28;20032;-66
2021/11/24 02:49:50;;;;;;;4.57;3.05;;;;;;;18.39;43.52;102619.72;5091742;28;20020;-65
2021/11/24 02:52:17;;;;;;;4.78;3.22;;;;;;;18.40;43.59;102618.78;5092309;28;20093;-65
2021/11/24 02:54:57;;;;;;;5.28;3.25;;;;;;;18.41;43.36;102612.56;5091123;28;20120;-65
2021/11/24 02:57:34;;;;;;;6.10;3.50;;;;;;;18.42;43.19;102608.13;5092089;28;20027;-65
2021/11/24 03:00:00;;;;;;;4.78;2.97;;;;;;;18.42;43.33;102594.94;5091898;28;20058;-64
2021/11/24 03:02:26;;;;;;;6.00;3.00;;;;;;;18.43;43.09;102594.84;5090806;28;20096;-64
2021/11/24 03:04:54;;;;;;;4.78;3.08;;;;;;;18.43;43.06;102589.56;5091846;28;20491;-64
2021/11/24 03:07:19;;;;;;;4.50;2.90;;;;;;;18.43;43.18;102591.38;5091355;28;20024;-65
2021/11/24 03:09:45;;;;;;;4.65;2.80;;;;;;;18.44;42.87;102585.16;5091616;28;20020;-64
2021/11/24 03:12:12;;;;;;;5.13;3.17;;;;;;;18.45;42.97;102584.19;5091857;28;20470;-64
2021/11/24 03:14:37;;;;;;;4.68;2.88;;;;;;;18.43;42.98;102565.81;5090640;28;20567;-65
2021/11/24 03:17:03;;;;;;;4.38;2.67;;;;;;;18.44;43.11;102570.16;5092996;28;20107;-64
2021/11/24 03:19:29;;;;;;;5.20;3.03;;;;;;;18.43;43.12;102564.97;5095346;28;20039;-65
2021/11/24 03:21:54;;;;;;;5.03;3.08;;;;;;;18.43;43.01;102559.69;5094764;28;20020;-65
2021/11/24 03:24:19;;;;;;;4.82;2.90;;;;;;;18.43;43.13;102551.75;5095517;28;20016;-65
2021/11/24 03:26:45;;;;;;;5.30;3.30;;;;;;;18.43;42.63;102560.53;5094890;28;20074;-65
2021/11/24 03:29:10;;;;;;;4.85;3.42;;;;;;;18.42;42.78;102550.94;5094384;28;20058;-65
2021/11/24 03:31:35;;;;;;;4.80;3.03;;;;;;;18.42;42.71;102547.41;5094780;28;20505;-65
2021/11/24 03:34:01;;;;;;;4.50;2.80;;;;;;;18.43;42.68;102549.97;5095396;28;20090;-65
2021/11/24 03:36:26;;;;;;;4.57;3.00;;;;;;;18.43;43.02;102549.13;5094565;28;20486;-64
2021/11/24 03:38:51;;;;;;;4.88;2.60;;;;;;;18.44;43.13;102545.56;5095269;28;20185;-65
2021/11/24 03:41:17;;;;;;;5.38;2.85;;;;;;;18.44;43.32;102545.56;5095066;28;20495;-65
2021/11/24 03:43:42;;;;;;;5.10;3.03;;;;;;;18.44;43.41;102542.91;5093920;28;20115;-65
2021/11/24 03:46:07;;;;;;;4.85;2.88;;;;;;;18.45;42.93;102537.56;5094672;28;20044;-65
2021/11/24 03:48:33;;;;;;;4.43;2.80;;;;;;;18.46;43.19;102533.13;5094801;28;20035;-65
2021/11/24 03:50:58;;;;;;;4.40;2.80;;;;;;;18.46;43.11;102527.84;5094279;28;20055;-65
2021/11/24 03:53:23;;;;;;;5.15;2.92;;;;;;;18.45;43.18;102529.63;5094430;28;20032;-65
2021/11/24 03:55:49;;;;;;;4.78;3.00;;;;;;;18.45;42.92;102524.34;5094862;28;20031;-65
2021/11/24 03:58:14;;;;;;;4.70;2.80;;;;;;;18.46;42.78;102523.41;5093872;28;20031;-65
2021/11/24 04:00:39;;;;;;;4.30;2.80;;;;;;;18.46;43.04;102523.41;5094377;28;20035;-64
2021/11/24 04:03:05;;;;;;;5.32;2.88;;;;;;;18.47;42.78;102519.00;5094738;28;20617;-64
2021/11/24 04:05:30;;;;;;;4.85;2.78;;;;;;;18.47;42.96;102519.00;5093685;28;20455;-64
2021/11/24 04:07:56;;;;;;;4.97;2.70;;;;;;;18.47;42.88;102522.47;5094678;28;20056;-64
2021/11/24 04:10:21;;;;;;;4.03;2.58;;;;;;;18.47;42.92;102524.28;5094498;28;20105;-65
2021/11/24 04:12:47;;;;;;;4.40;2.90;;;;;;;18.46;43.06;102526.03;5093272;28;20103;-65
2021/11/24 04:15:15;;;;;;;4.72;2.75;;;;;;;18.46;42.91;102515.47;5094098;28;20130;-65
2021/11/24 04:17:41;;;;;;;4.78;2.70;;;;;;;18.46;42.78;102519.91;5093331;28;20028;-66
2021/11/24 04:20:09;;;;;;;4.90;3.03;;;;;;;18.46;42.73;102517.28;5094344;28;20020;-65
2021/11/24 04:22:34;;;;;;;4.38;2.80;;;;;;;18.45;42.65;102510.28;5093897;28;20036;-66
2021/11/24 04:25:06;;;;;;;4.78;2.92;;;;;;;18.44;42.97;102500.69;5093405;28;20386;-65
2021/11/24 04:27:32;;;;;;;5.15;2.80;;;;;;;18.43;42.93;102497.16;5093522;28;20032;-64
2021/11/24 04:30:00;;;;;;;4.78;2.97;;;;;;;18.44;42.91;102498.88;5093233;28;20032;-65
2021/11/24 04:32:25;;;;;;;5.07;2.95;;;;;;;18.44;43.34;102498.88;5093254;28;20093;-64
2021/11/24 04:34:51;;;;;;;5.13;3.05;;;;;;;18.45;43.50;102497.09;5093890;28;20020;-65
2021/11/24 04:37:16;;;;;;;4.72;2.90;;;;;;;18.46;43.28;102493.53;5094009;28;20040;-64
2021/11/24 04:39:42;;;;;;;4.97;2.90;;;;;;;18.44;43.35;102493.59;5093026;28;20111;-65
2021/11/24 04:42:08;;;;;;;5.22;3.13;;;;;;;18.45;43.25;102489.16;5094165;28;20413;-65
2021/11/24 04:44:33;;;;;;;4.65;2.90;;;;;;;18.46;43.48;102489.06;5093376;28;20043;-66
2021/11/24 04:46:59;;;;;;;4.32;2.60;;;;;;;18.45;43.10;102484.75;5093053;28;20399;-65
2021/11/24 04:49:24;;;;;;;4.57;2.92;;;;;;;18.45;43.22;102483.88;5093554;28;20032;-65
2021/11/24 04:51:49;;;;;;;5.13;2.90;;;;;;;18.47;42.97;102485.50;5093526;28;20074;-66
2021/11/24 04:54:15;;;;;;;5.07;2.83;;;;;;;18.47;43.27;102482.88;5092904;28;20272;-65
2021/11/24 04:56:40;;;;;;;4.45;2.72;;;;;;;18.46;43.23;102489.06;5093275;28;20119;-65
2021/11/24 04:59:05;;;;;;;4.35;2.75;;;;;;;18.47;42.81;102487.31;5093739;28;20024;-65
2021/11/24 05:01:31;;;;;;;4.47;2.70;;;;;;;18.38;42.90;102467.56;5092644;28;20085;-66
2021/11/24 05:03:57;;;;;;;4.75;2.78;;;;;;;18.46;43.00;102483.78;5093563;28;20024;-65
2021/11/24 05:06:23;;;;;;;4.82;3.13;;;;;;;18.45;43.07;102476.84;5093394;28;20510;-65
2021/11/24 05:08:49;;;;;;;5.10;2.90;;;;;;;18.46;42.98;102472.41;5092626;28;20111;-65
2021/11/24 05:11:16;;;;;;;4.82;2.67;;;;;;;18.45;42.80;102468.91;5093361;28;20108;-65
2021/11/24 05:13:49;;;;;;;5.32;3.10;;;;;;;18.45;42.66;102468.91;5092718;28;20519;-65
2021/11/24 05:16:15;;;;;;;4.88;2.88;;;;;;;18.45;42.73;102471.56;5093135;28;20036;-65
2021/11/24 05:18:44;;;;;;;4.82;2.90;;;;;;;18.43;42.83;102465.50;5092832;28;20028;-65
2021/11/24 05:21:17;;;;;;;5.38;2.83;;;;;;;18.43;42.90;102467.28;5092458;28;20035;-65
2021/11/24 05:23:43;;;;;;;6.15;3.05;;;;;;;18.42;43.10;102457.66;5092722;28;20028;-65
2021/11/24 05:26:10;;;;;;;4.30;2.50;;;;;;;18.43;43.29;102459.38;5092922;28;20024;-65
2021/11/24 05:28:36;;;;;;;5.25;3.10;;;;;;;18.42;43.26;102463.81;5092169;28;20024;-64
2021/11/24 05:31:02;;;;;;;4.38;2.60;;;;;;;18.44;43.55;102458.44;5092987;28;20380;-65
2021/11/24 05:33:28;;;;;;;4.65;2.70;;;;;;;18.43;43.66;102456.72;5092747;28;20359;-65
2021/11/24 05:35:53;;;;;;;4.43;2.65;;;;;;;18.43;43.23;102454.94;5092143;28;20464;-65
2021/11/24 05:38:19;;;;;;;4.68;2.85;;;;;;;18.43;43.25;102456.72;5092726;28;20487;-65
2021/11/24 05:40:45;;;;;;;4.25;2.75;;;;;;;18.44;43.23;102455.81;5091912;28;20032;-65
2021/11/24 05:43:10;;;;;;;4.57;2.80;;;;;;;18.44;43.39;102453.16;5092084;28;20112;-65
2021/11/24 05:45:42;;;;;;;4.15;2.50;;;;;;;18.44;43.18;102450.53;5092407;28;20111;-65
2021/11/24 05:48:09;;;;;;;4.93;2.60;;;;;;;18.44;43.06;102454.00;5092686;28;20043;-65
2021/11/24 05:50:36;;;;;;;5.22;2.97;;;;;;;18.42;43.08;102449.75;5091458;28;20417;-65
2021/11/24 05:53:02;;;;;;;4.60;2.53;;;;;;;18.44;42.98;102448.72;5092496;28;20020;-65
2021/11/24 05:55:28;;;;;;;4.85;3.05;;;;;;;18.45;42.96;102444.28;5092468;28;20081;-65
2021/11/24 05:57:53;;;;;;;4.40;2.67;;;;;;;18.44;43.13;102443.44;5091827;28;20036;-65
2021/11/24 06:00:19;;;;;;;4.05;2.42;;;;;;;18.44;42.73;102442.59;5092870;28;20032;-65
2021/11/24 06:02:44;;;;;;;4.30;2.72;;;;;;;18.44;42.81;102437.31;5092282;28;20523;-65
2021/11/24 06:05:11;;;;;;;4.28;2.50;;;;;;;18.43;43.40;102439.09;5091702;28;20031;-65
2021/11/24 06:07:36;;;;;;;4.38;2.58;;;;;;;18.43;43.41;102439.09;5091949;28;20036;-64
2021/11/24 06:10:08;;;;;;;3.83;2.00;;;;;;;18.44;43.54;102434.69;5092281;28;20137;-65
2021/11/24 06:12:33;;;;;;;4.45;2.10;;;;;;;18.43;43.74;102428.53;5092314;28;20089;-65
2021/11/24 06:14:59;;;;;;;4.35;2.25;;;;;;;18.44;44.08;102422.34;5092464;28;20119;-65
2021/11/24 06:17:24;;;;;;;5.00;2.03;;;;;;;18.45;44.13;102425.81;5091335;28;20081;-65
2021/11/24 06:19:50;;;;;;;3.67;1.80;;;;;;;18.47;44.09;102421.31;5092351;28;20494;-64
2021/11/24 06:22:15;;;;;;;3.92;1.77;;;;;;;18.47;44.51;102426.59;5092130;28;20386;-65
2021/11/24 06:24:41;;;;;;;3.42;1.80;;;;;;;18.48;44.09;102421.22;5091564;28;20073;-65
2021/11/24 06:27:06;;;;;;;3.60;1.85;;;;;;;18.49;44.13;102420.25;5092238;28;20029;-65
2021/11/24 06:29:31;;;;;;;4.03;1.83;;;;;;;18.52;44.15;102421.00;5092162;28;20036;-65
2021/11/24 06:31:57;;;;;;;3.67;1.90;;;;;;;18.52;44.32;102415.75;5091521;28;20464;-65
2021/11/24 06:34:22;;;;;;;3.72;2.05;;;;;;;18.54;44.43;102419.16;5092303;28;20047;-65
2021/11/24 06:36:53;;;;;;;3.83;2.00;;;;;;;18.55;44.32;102419.06;5091869;28;20453;-66
2021/11/24 06:39:19;;;;;;;3.40;1.80;;;;;;;18.57;44.32;102417.19;5091779;28;20024;-66
2021/11/24 06:41:44;;;;;;;3.47;1.70;;;;;;;18.58;44.17;102412.75;5091939;28;20061;-66
2021/11/24 06:44:09;;;;;;;3.73;1.73;;;;;;;18.59;44.20;102419.75;5092133;28;20072;-65
2021/11/24 06:46:35;;;;;;;3.75;1.70;;;;;;;18.61;44.02;102417.84;5091052;28;20295;-64
2021/11/24 06:49:01;;;;;;;3.10;1.70;;;;;;;18.62;44.29;102415.13;5092143;28;20022;-64
2021/11/24 06:51:26;;;;;;;3.05;1.58;;;;;;;18.64;44.13;102415.03;5092140;28;20031;-64
2021/11/24 06:53:51;;;;;;;2.97;1.60;;;;;;;18.65;43.93;102416.75;5095528;28;20030;-65
2021/11/24 06:56:17;;;;;;;2.85;1.60;;;;;;;18.66;44.41;102413.16;5095798;28;20421;-65
2021/11/24 06:58:42;;;;;;;3.08;1.60;;;;;;;18.68;44.09;102417.41;5095535;28;20151;-64
2021/11/24 07:01:08;;;;;;;3.40;1.63;;;;;;;18.68;44.16;102411.28;5095127;28;20115;-64
2021/11/24 07:03:33;;;;;;;3.40;1.60;;;;;;;18.70;44.07;102416.47;5095489;28;20047;-64
2021/11/24 07:05:58;;;;;;;3.35;1.50;;;;;;;18.68;44.08;102414.75;5095555;28;20059;-64
2021/11/24 07:08:23;;;;;;;2.90;1.60;;;;;;;18.72;44.01;102411.94;5094500;28;20028;-64
2021/11/24 07:10:49;;;;;;;3.27;1.57;;;;;;;18.72;44.00;102409.31;5095833;28;20273;-65
2021/11/24 07:13:15;;;;;;;2.95;1.50;;;;;;;18.74;43.91;102412.69;5095555;28;20327;-64
2021/11/24 07:15:40;;;;;;;2.95;1.40;;;;;;;18.74;43.91;102415.34;5094387;28;20024;-65
2021/11/24 07:18:05;;;;;;;2.92;1.48;;;;;;;18.74;43.98;102407.41;5095397;28;20040;-65
2021/11/24 07:20:31;;;;;;;3.45;1.50;;;;;;;18.76;44.10;102414.31;5094349;28;20064;-65
2021/11/24 07:22:56;;;;;;;3.38;1.60;;;;;;;18.75;44.23;102402.03;5095449;28;20028;-65
2021/11/24 07:25:22;;;;;;;2.63;1.50;;;;;;;18.77;44.15;102400.19;5095500;28;20044;-64
2021/11/24 07:27:48;;;;;;;3.50;1.50;;;;;;;18.77;44.25;102408.09;5094521;28;20038;-65
2021/11/24 07:30:15;;;;;;;3.28;1.50;;;;;;;18.78;43.96;102401.00;5095527;28;20391;-66
2021/11/24 07:32:41;;;;;;;3.30;1.33;;;;;;;18.79;44.16;102395.66;5094987;28;20020;-65
2021/11/24 07:35:07;;;;;;;3.55;1.40;;;;;;;18.80;43.96;102393.84;5094482;28;20107;-65
2021/11/24 07:37:32;;;;;;;2.80;1.50;;;;;;;18.79;43.77;102400.09;5094849;28;20574;-65
2021/11/24 07:39:58;;;;;;;4.13;1.40;;;;;;;18.79;43.95;102403.56;5095523;28;20024;-64
2021/11/24 07:42:23;;;;;;;2.13;1.23;;;;;;;18.81;43.70;102406.13;5094281;28;20067;-65
2021/11/24 07:44:50;;;;;;;2.92;1.50;;;;;;;18.81;43.90;102406.97;5095621;28;20036;-65
2021/11/24 07:47:15;;;;;;;3.03;1.23;;;;;;;18.80;44.16;102405.28;5095355;28;20040;-65
2021/11/24 07:49:40;;;;;;;3.35;1.50;;;;;;;18.81;44.04;102406.97;5094524;28;20077;-64
2021/11/24 07:52:06;;;;;;;3.30;1.70;;;;;;;18.81;44.09;102403.47;5095074;28;20028;-64
2021/11/24 07:54:31;;;;;;;3.25;1.50;;;;;;;18.81;44.21;102401.69;5096830;28;20027;-65
2021/11/24 07:56:57;;;;;;;2.67;1.40;;;;;;;18.80;44.17;102400.00;5101183;28;20024;-65
2021/11/24 07:59:22;;;;;;;3.17;1.70;;;;;;;18.82;44.08;102403.38;5100021;28;20050;-66
2021/11/24 08:01:48;;;;;;;3.03;1.50;;;;;;;18.82;43.97;102397.25;5098658;28;20080;-66
2021/11/24 08:04:14;;;;;;;4.30;2.40;;;;;;;18.83;43.46;102396.31;5098399;28;20032;-64
2021/11/24 08:06:39;;;;;;;3.88;2.25;;;;;;;18.81;43.58;102399.03;5098080;28;20028;-65
2021/11/24 08:09:08;;;;;;;3.40;1.85;;;;;;;18.82;43.86;102398.09;5098319;28;20027;-65
2021/11/24 08:11:33;;;;;;;3.15;1.70;;;;;;;18.83;43.94;102397.19;5098010;28;20040;-65
2021/11/24 08:13:58;;;;;;;3.10;1.63;;;;;;;18.83;44.12;102391.03;5097038;28;20106;-65
2021/11/24 08:16:24;;;;;;;3.28;1.50;;;;;;;18.84;43.93;102384.84;5094666;28;20285;-67
2021/11/24 08:18:49;;;;;;;2.90;1.60;;;;;;;18.83;44.20;102378.69;5094017;28;20149;-67
2021/11/24 08:21:14;;;;;;;5.18;1.80;;;;;;;18.87;44.08;102375.84;5094450;28;20024;-67
2021/11/24 08:23:40;;;;;;;3.80;1.80;;;;;;;18.87;44.27;102367.94;5095393;28;20036;-66
2021/11/24 08:26:05;;;;;;;3.13;1.50;;;;;;;18.88;44.29;102367.84;5094542;28;20094;-67
2021/11/24 08:28:31;;;;;;;2.67;1.38;;;;;;;18.89;44.12;102363.44;5093995;28;20069;-64
2021/11/24 08:30:56;;;;;;;3.20;1.45;;;;;;;18.89;44.13;102364.28;5093333;28;20515;-67
2021/11/24 08:33:21;;;;;;;3.65;1.60;;;;;;;18.89;44.02;102360.78;5094162;28;20048;-67
2021/11/24 08:35:48;;;;;;;3.88;2.00;;;;;;;18.90;44.27;102357.19;5093973;28;20405;-65
2021/11/24 08:38:14;;;;;;;4.10;1.70;;;;;;;18.90;44.42;102352.78;5093864;28;20024;-66
2021/11/24 08:40:40;;;;;;;3.85;1.90;;;;;;;19.01;44.31;102346.84;5095625;28;20020;-68
2021/11/24 08:43:05;;;;;;;3.80;1.90;;;;;;;19.12;44.12;102344.38;5093988;28;20078;-69
2021/11/24 08:45:30;;;;;;;3.53;1.73;;;;;;;19.25;43.77;102344.47;5092793;28;20059;-70
2021/11/24 08:47:56;;;;;;;3.50;1.70;;;;;;;19.37;43.56;102346.31;5093478;28;20044;-62
2021/11/24 08:50:21;;;;;;;5.03;2.00;;;;;;;19.49;43.30;102346.50;5093474;28;20072;-63
2021/11/24 08:52:47;;;;;;;4.03;1.92;;;;;;;19.56;42.98;102345.16;5092356;28;20110;-66
2021/11/24 08:55:13;;;;;;;6.20;3.05;;;;;;;19.57;42.36;102339.78;5093566;28;20095;-67
2021/11/24 08:57:39;;;;;;;4.82;2.90;;;;;;;19.62;42.47;102349.22;5093283;28;20036;-66
2021/11/24 09:00:10;;;;;;;5.55;3.10;;;;;;;19.65;42.60;102335.81;5092670;28;20173;-67
2021/11/24 09:02:36;;;;;;;6.70;2.45;;;;;;;19.71;42.66;102351.25;5092922;28;20044;-66
2021/11/24 09:05:02;;;;;;;4.97;2.28;;;;;;;19.73;42.73;102336.16;5092791;28;20556;-67
2021/11/24 09:07:28;;;;;;;5.43;2.75;;;;;;;19.74;42.54;102351.94;5092053;28;20107;-68
2021/11/24 09:09:53;;;;;;;6.63;2.72;;;;;;;19.77;42.37;102339.47;5093156;28;20108;-66
2021/11/24 09:12:18;;;;;;;5.00;2.85;;;;;;;19.77;42.51;102336.81;5093411;28;20032;-69
2021/11/24 09:14:44;;;;;;;6.10;3.28;;;;;;;19.78;42.38;102338.53;5091450;28;20403;-69
2021/11/24 09:17:09;;;;;;;5.00;3.08;;;;;;;19.79;42.32;102342.84;5092894;28;20040;-67
2021/11/24 09:19:34;;;;;;;5.30;3.07;;;;;;;19.77;42.38;102339.47;5092823;28;20036;-70
2021/11/24 09:22:00;;;;;;;5.05;2.90;;;;;;;19.77;42.27;102337.66;5092143;28;20279;-68
2021/11/24 09:24:26;;;;;;;5.38;3.13;;;;;;;19.77;42.65;102336.81;5093755;28;20016;-66
2021/11/24 09:27:04;;;;;;;4.82;2.85;;;;;;;19.73;42.20;102330.88;5092502;28;20402;-66
2021/11/24 09:29:29;;;;;;;4.78;3.45;;;;;;;19.69;42.43;102329.34;5092420;28;20019;-66
2021/11/24 09:31:55;;;;;;;5.00;3.33;;;;;;;19.65;42.45;102327.88;5092714;28;20101;-67
2021/11/24 09:34:22;;;;;;;5.30;3.30;;;;;;;19.61;42.36;102321.91;5092170;28;20437;-67
2021/11/24 09:36:48;;;;;;;6.07;3.25;;;;;;;19.58;42.36;102325.63;5092503;28;20020;-67
2021/11/24 09:39:13;;;;;;;4.93;2.95;;;;;;;19.55;42.57;102312.59;5093096;28;20103;-64
2021/11/24 09:41:43;;;;;;;5.53;3.40;;;;;;;19.56;42.75;102308.97;5092359;28;20451;-67
2021/11/24 09:44:08;;;;;;;5.10;3.30;;;;;;;19.61;42.59;102307.84;5093151;28;20123;-69
2021/11/24 09:46:34;;;;;;;5.85;3.30;;;;;;;19.64;42.58;102305.84;5093055;28;20195;-70
2021/11/24 09:49:02;;;;;;;5.43;3.30;;;;;;;19.71;42.69;102311.56;5092010;28;20023;-68
2021/11/24 09:51:35;;;;;;;7.38;3.30;;;;;;;19.73;42.53;102301.78;5093316;28;20093;-70
2021/11/24 09:54:03;;;;;;;5.78;3.60;;;;;;;19.75;42.28;102299.88;5093352;28;20020;-68
2021/11/24 09:56:30;;;;;;;5.57;3.55;;;;;;;19.71;42.61;102287.78;5091913;28;20079;-68
2021/11/24 09:58:55;;;;;;;6.78;3.53;;;;;;;19.68;42.46;102291.47;5092512;28;20119;-69
2021/11/24 10:01:22;;;;;;;5.32;3.22;;;;;;;19.64;42.41;102283.84;5092771;28;20020;-68
2021/11/24 10:03:48;;;;;;;5.72;3.30;;;;;;;19.63;42.50;102280.38;5091272;28;20470;-66
2021/11/24 10:06:14;;;;;;;5.90;3.58;;;;;;;19.63;42.34;102275.06;5092179;28;20081;-69
2021/11/24 10:08:39;;;;;;;4.88;3.05;;;;;;;19.68;42.41;102282.72;5092053;28;20048;-69
2021/11/24 10:11:05;;;;;;;5.75;3.60;;;;;;;19.72;42.47;102286.84;5091478;28;20101;-67
2021/11/24 10:13:30;;;;;;;5.60;3.25;;;;;;;19.73;42.42;102284.09;5091650;28;20059;-68
2021/11/24 10:15:57;;;;;;;6.40;3.55;;;;;;;19.76;42.10;102272.50;5091079;28;20424;-70
2021/11/24 10:18:25;;;;;;;4.82;3.22;;;;;;;19.75;42.34;102261.03;5091373;28;20544;-68
2021/11/24 10:21:06;;;;;;;5.97;3.10;;;;;;;19.75;42.25;102266.31;5091810;28;20054;-68
2021/11/24 10:23:41;;;;;;;5.80;3.30;;;;;;;19.75;42.21;102265.47;5090951;28;20475;-64
2021/11/24 10:26:31;;;;;;;5.57;3.30;;;;;;;19.73;42.12;102270.03;5093620;28;20359;-71
2021/11/24 10:28:58;;;;;;;5.18;3.20;;;;;;;19.67;42.65;102255.41;5096392;28;20039;-69
2021/11/24 10:31:29;;;;;;;10.38;3.47;;;;;;;19.59;42.62;102247.13;5095135;28;20036;-67
2021/11/24 10:33:55;;;;;;;5.18;2.85;;;;;;;19.54;42.91;102250.06;5095852;28;20031;-70
2021/11/24 10:36:20;;;;;;;6.38;3.47;;;;;;;19.49;42.81;102248.69;5095824;28;20044;-70
2021/11/24 10:38:49;;;;;;;5.93;3.35;;;;;;;19.45;42.94;102242.72;5094789;28;20030;-69
2021/11/24 10:41:39;;;;;;;6.15;3.42;;;;;;;19.39;43.24;102233.41;5095904;28;20486;-69
2021/11/24 10:44:05;;;;;;;5.13;3.08;;;;;;;19.37;43.37;102227.34;5095876;28;20024;-68
2021/11/24 10:46:32;;;;;;;6.03;3.47;;;;;;;19.35;43.46;102223.13;5094553;28;20434;-71
2021/11/24 10:49:00;;;;;;;6.25;3.22;;;;;;;19.32;43.29;102216.25;5095990;28;20020;-70
2021/11/24 10:51:43;;;;;;;5.18;3.13;;;;;;;19.31;43.21;102205.75;5095368;28;20084;-71
2021/11/24 10:54:19;;;;;;;5.63;3.30;;;;;;;19.28;43.42;102204.19;5095653;28;20024;-71
2021/11/24 10:57:03;;;;;;;5.60;3.25;;;;;;;19.26;43.25;102192.00;5095415;28;20028;-70
2021/11/24 10:59:31;;;;;;;7.72;3.10;;;;;;;19.24;43.55;102192.09;5094384;28;20043;-71
2021/11/24 11:02:28;;;;;;;5.70;3.30;;;;;;;19.23;43.29;102184.28;5095738;28;20036;-71
2021/11/24 11:05:07;;;;;;;5.70;3.28;;;;;;;19.21;43.46;102182.56;5093506;28;20040;-70
2021/11/24 11:07:37;;;;;;;5.30;3.35;;;;;;;19.20;43.41;102177.38;5095047;28;20028;-70
2021/11/24 11:10:04;;;;;;;6.50;3.35;;;;;;;19.19;43.60;102176.53;5095303;28;20028;-71
2021/11/24 11:12:30;;;;;;;5.88;3.58;;;;;;;19.18;43.53;102180.16;5095369;28;20086;-70
2021/11/24 11:15:23;;;;;;;5.75;3.30;;;;;;;19.15;43.32;102169.78;5094874;28;20047;-70
2021/11/24 11:18:15;;;;;;;5.50;3.17;;;;;;;19.17;43.38;102167.03;5095483;28;20464;-70
2021/11/24 11:20:44;;;;;;;8.90;3.80;;;;;;;19.15;43.38;102156.56;5094755;28;20032;-71
2021/11/24 11:23:26;;;;;;;6.55;3.35;;;;;;;19.13;43.34;102163.72;5095650;28;20031;-71